Time;durP1;ratioP1;P1;durP2;ratioP2;P2;SDS_P1;SDS_P2;PMS_P1;PMS_P2;Temp;Humidity;BMP_temperature;BMP_pressure;BME280_temperature;BME280_humidity;BME280_pressure;Samples;Min_cycle;Max_cycle;Signal;HPM_P1;HPM_P2
2022/08/10 00:01:10;;;;;;;4.53;1.98;;;22.40;87.80;;;;;;4958057;28;20073;-75
2022/08/10 00:03:36;;;;;;;2.95;1.88;;;22.40;87.90;;;;;;4959384;28;20059;-75
2022/08/10 00:06:02;;;;;;;9.23;2.92;;;22.40;88.00;;;;;;4943662;28;20071;-75
2022/08/10 00:08:28;;;;;;;4.43;2.17;;;22.40;88.20;;;;;;4960019;28;20054;-75
2022/08/10 00:10:55;;;;;;;5.07;2.13;;;22.30;88.20;;;;;;4942755;28;20571;-75
2022/08/10 00:13:24;;;;;;;2.97;1.92;;;22.30;88.30;;;;;;4961560;28;20112;-75
2022/08/10 00:15:51;;;;;;;3.30;2.10;;;22.30;88.40;;;;;;4960214;28;20051;-75
2022/08/10 00:18:17;;;;;;;3.28;1.90;;;22.30;88.60;;;;;;4935460;28;20612;-75
2022/08/10 00:20:43;;;;;;;3.95;1.88;;;22.20;88.60;;;;;;4959267;28;20444;-75
2022/08/10 00:23:09;;;;;;;3.25;2.00;;;22.20;88.70;;;;;;4956946;28;20072;-75
2022/08/10 00:25:35;;;;;;;2.90;1.80;;;22.20;88.70;;;;;;4958986;28;20049;-75
2022/08/10 00:28:01;;;;;;;2.40;1.60;;;22.10;88.80;;;;;;4958567;28;20053;-75
2022/08/10 00:30:26;;;;;;;4.97;1.67;;;22.10;88.90;;;;;;4959222;28;20069;-76
2022/08/10 00:32:52;;;;;;;4.70;2.25;;;22.10;88.90;;;;;;4959768;28;20071;-76
2022/08/10 00:35:18;;;;;;;4.97;2.30;;;22.10;89.00;;;;;;4958537;28;20521;-76
2022/08/10 00:37:44;;;;;;;3.63;1.95;;;22.10;89.00;;;;;;4945653;28;20139;-76
2022/08/10 00:40:10;;;;;;;2.45;1.80;;;22.10;89.10;;;;;;4960582;28;20541;-75
2022/08/10 00:42:36;;;;;;;3.05;1.70;;;22.10;89.30;;;;;;4958622;28;20047;-76
2022/08/10 00:45:03;;;;;;;5.25;2.30;;;22.10;89.30;;;;;;4929413;28;20045;-76
2022/08/10 00:47:28;;;;;;;2.67;1.95;;;22.00;89.30;;;;;;4959414;28;20121;-76
2022/08/10 00:49:54;;;;;;;4.10;1.77;;;22.00;89.40;;;;;;4961043;28;20049;-76
2022/08/10 00:52:20;;;;;;;5.75;2.22;;;22.00;89.40;;;;;;4959705;28;20039;-76
2022/08/10 00:54:47;;;;;;;3.53;2.10;;;21.90;89.50;;;;;;4929610;28;21047;-76
2022/08/10 00:57:13;;;;;;;3.97;2.15;;;21.90;89.50;;;;;;4959562;28;20052;-76
2022/08/10 00:59:39;;;;;;;4.65;1.83;;;21.80;89.60;;;;;;4928923;28;20074;-76
2022/08/10 01:02:05;;;;;;;5.35;1.90;;;21.80;89.60;;;;;;4943201;28;20096;-76
2022/08/10 01:04:31;;;;;;;6.30;3.80;;;21.80;89.70;;;;;;4929622;28;20043;-76
2022/08/10 01:07:15;;;;;;;2.42;1.70;;;21.70;89.70;;;;;;4955300;28;20098;-76
2022/08/10 01:09:58;;;;;;;3.92;2.58;;;21.80;89.80;;;;;;4959172;28;20043;-75
2022/08/10 01:12:52;;;;;;;6.70;2.67;;;21.70;89.80;;;;;;4957065;28;20039;-76
2022/08/10 01:15:28;;;;;;;3.03;1.67;;;21.70;90.00;;;;;;4941830;28;20145;-75
2022/08/10 01:18:03;;;;;;;3.88;1.80;;;21.60;90.00;;;;;;4958532;28;20305;-74
2022/08/10 01:20:42;;;;;;;4.10;2.25;;;21.60;90.00;;;;;;4978936;28;20050;-75
2022/08/10 01:23:30;;;;;;;3.97;1.70;;;21.60;90.00;;;;;;5047786;28;20054;-74
2022/08/10 01:26:03;;;;;;;3.88;1.95;;;21.50;90.00;;;;;;4978843;28;20050;-76
2022/08/10 01:28:54;;;;;;;3.00;1.63;;;21.60;90.10;;;;;;4955451;28;20056;-74
2022/08/10 01:31:25;;;;;;;2.83;1.52;;;21.50;90.10;;;;;;4941675;28;20051;-75
2022/08/10 01:33:59;;;;;;;2.95;1.70;;;21.50;90.10;;;;;;4950134;28;20081;-74
2022/08/10 01:36:33;;;;;;;3.78;1.83;;;21.50;90.10;;;;;;4944598;28;20564;-74
2022/08/10 01:39:05;;;;;;;3.05;1.42;;;21.40;90.10;;;;;;4949808;28;20158;-75
2022/08/10 01:41:36;;;;;;;;;;;21.50;90.20;;;;;;4958488;28;20607;-75
2022/08/10 01:44:18;;;;;;;2.80;1.67;;;21.40;90.20;;;;;;4961772;28;19952;-75
2022/08/10 01:46:54;;;;;;;5.13;2.22;;;21.40;90.20;;;;;;4925970;28;20604;-75
2022/08/10 01:49:26;;;;;;;5.05;1.90;;;21.30;90.60;;;;;;4934737;28;22338;-75
2022/08/10 01:52:07;;;;;;;5.18;1.60;;;21.30;90.30;;;;;;4943761;28;20070;-75
2022/08/10 01:54:48;;;;;;;2.65;1.42;;;21.30;90.30;;;;;;4953145;28;20046;-79
2022/08/10 01:57:20;;;;;;;4.85;1.60;;;21.30;90.30;;;;;;4963347;28;20065;-78
2022/08/10 01:59:48;;;;;;;3.25;2.00;;;21.30;90.40;;;;;;4964411;28;20071;-79
2022/08/10 02:02:18;;;;;;;4.93;1.80;;;21.30;90.40;;;;;;4955311;28;20626;-79
2022/08/10 02:04:51;;;;;;;3.03;1.60;;;21.20;90.40;;;;;;4933724;28;20043;-79
2022/08/10 02:07:28;;;;;;;2.13;1.60;;;21.20;90.40;;;;;;4958136;28;20586;-79
2022/08/10 02:10:05;;;;;;;2.45;1.42;;;21.20;90.40;;;;;;4951126;28;20145;-79
2022/08/10 02:12:34;;;;;;;2.13;1.38;;;21.20;90.40;;;;;;4944498;28;20048;-79
2022/08/10 02:15:26;;;;;;;2.70;1.60;;;21.10;90.50;;;;;;4953047;28;20534;-79
2022/08/10 02:17:57;;;;;;;2.45;1.70;;;21.10;90.50;;;;;;4952054;28;20062;-80
2022/08/10 02:20:39;;;;;;;3.05;1.65;;;21.10;90.50;;;;;;4952420;28;20055;-80
2022/08/10 02:23:18;;;;;;;3.13;1.80;;;21.00;90.50;;;;;;4948047;28;20039;-80
2022/08/10 02:25:48;;;;;;;3.95;1.75;;;21.10;90.60;;;;;;4934547;28;20041;-79
2022/08/10 02:28:26;;;;;;;2.30;1.40;;;20.90;90.50;;;;;;4949568;28;20504;-79
2022/08/10 02:30:58;;;;;;;5.07;1.70;;;21.10;90.60;;;;;;4946420;28;20061;-80
2022/08/10 02:33:29;;;;;;;3.85;1.77;;;21.00;90.60;;;;;;4949618;28;20053;-80
2022/08/10 02:36:11;;;;;;;4.35;2.05;;;21.10;90.70;;;;;;4931627;28;20054;-79
2022/08/10 02:38:45;;;;;;;4.15;1.58;;;21.00;90.70;;;;;;4933371;28;20047;-79
2022/08/10 02:41:29;;;;;;;2.90;1.73;;;21.00;90.70;;;;;;5013101;28;20141;-79
2022/08/10 02:44:05;;;;;;;7.25;2.30;;;20.80;90.70;;;;;;4931131;28;21244;-80
2022/08/10 02:47:06;;;;;;;4.30;1.83;;;20.80;90.80;;;;;;4934299;28;20055;-79
2022/08/10 02:49:41;;;;;;;2.72;1.50;;;20.80;90.80;;;;;;5025925;28;20513;-79
2022/08/10 02:55:29;;;;;;;5.47;1.70;;;20.80;90.90;;;;;;4964931;28;20100;-79
2022/08/10 02:58:01;;;;;;;3.15;1.80;;;21.00;90.90;;;;;;5029414;28;20152;-79
2022/08/10 03:00:48;;;;;;;4.22;1.58;;;20.80;90.90;;;;;;4934411;28;20043;-79
2022/08/10 03:03:21;;;;;;;2.50;1.75;;;20.70;91.00;;;;;;4932873;28;20051;-80
2022/08/10 03:06:07;;;;;;;3.83;2.25;;;20.50;90.90;;;;;;4964513;28;20158;-80
2022/08/10 03:08:48;;;;;;;3.85;1.80;;;20.70;91.00;;;;;;4950001;28;20054;-79
2022/08/10 03:11:27;;;;;;;3.83;2.30;;;21.00;91.10;;;;;;4933716;28;20497;-79
2022/08/10 03:13:58;;;;;;;7.18;1.88;;;20.70;91.10;;;;;;4964809;28;20044;-80
2022/08/10 03:16:29;;;;;;;3.92;1.90;;;20.70;91.10;;;;;;4966463;28;20153;-79
2022/08/10 03:18:58;;;;;;;;;;;20.70;91.20;;;;;;5030578;28;20043;-79
2022/08/10 03:21:28;;;;;;;3.28;1.50;;;20.60;91.10;;;;;;4968083;28;20416;-79
2022/08/10 03:24:01;;;;;;;2.92;1.52;;;20.60;91.20;;;;;;4950287;28;20051;-79
2022/08/10 03:26:33;;;;;;;5.13;1.52;;;20.70;91.10;;;;;;4966069;28;20043;-80
2022/08/10 03:29:07;;;;;;;;;;;20.60;91.20;;;;;;4935069;28;20555;-80
2022/08/10 03:31:34;;;;;;;2.58;1.63;;;20.60;91.20;;;;;;4966766;28;20485;-80
2022/08/10 03:34:01;;;;;;;7.65;1.70;;;20.50;91.20;;;;;;4950178;28;20050;-79
2022/08/10 03:36:28;;;;;;;3.65;1.80;;;20.50;91.30;;;;;;4967746;28;20051;-80
2022/08/10 03:38:57;;;;;;;4.93;1.80;;;20.30;91.30;;;;;;4932348;28;20043;-80
2022/08/10 03:41:30;;;;;;;2.75;1.63;;;20.40;91.30;;;;;;4967296;28;20043;-79
2022/08/10 03:44:00;;;;;;;3.20;1.77;;;20.30;91.40;;;;;;4966303;28;20177;-78
2022/08/10 03:46:28;;;;;;;3.35;2.00;;;20.30;91.50;;;;;;4963710;28;20468;-79
2022/08/10 03:49:16;;;;;;;2.53;1.63;;;20.40;91.50;;;;;;4935667;28;20051;-79
2022/08/10 03:51:44;;;;;;;4.97;1.83;;;20.30;91.60;;;;;;4963238;28;20067;-79
2022/08/10 03:54:13;;;;;;;3.63;2.10;;;20.30;91.60;;;;;;4950989;28;20504;-78
2022/08/10 03:56:44;;;;;;;2.58;1.70;;;20.30;91.60;;;;;;4936808;28;20067;-79
2022/08/10 03:59:14;;;;;;;7.55;2.05;;;20.20;91.70;;;;;;4964199;28;20053;-79
2022/08/10 04:01:49;;;;;;;5.35;1.77;;;20.20;91.70;;;;;;4931929;28;20134;-79
2022/08/10 04:04:15;;;;;;;3.33;1.83;;;20.20;91.70;;;;;;4963333;28;20043;-79
2022/08/10 04:06:44;;;;;;;3.50;1.92;;;20.10;91.80;;;;;;4944357;28;20122;-78
2022/08/10 04:09:16;;;;;;;4.13;1.83;;;20.00;91.70;;;;;;4944768;28;20193;-78
2022/08/10 04:11:50;;;;;;;2.78;2.03;;;20.10;91.90;;;;;;4943786;28;20100;-79
2022/08/10 04:14:18;;;;;;;6.22;2.00;;;20.00;91.80;;;;;;4962845;28;20051;-78
2022/08/10 04:16:54;;;;;;;3.78;2.13;;;20.10;92.00;;;;;;4962291;28;20055;-79
2022/08/10 04:19:24;;;;;;;6.43;2.67;;;20.10;92.00;;;;;;4932211;28;20046;-79
2022/08/10 04:22:13;;;;;;;3.08;1.85;;;20.00;92.00;;;;;;4947056;28;20070;-79
2022/08/10 04:24:42;;;;;;;5.65;2.60;;;20.00;92.00;;;;;;4958340;28;20103;-79
2022/08/10 04:27:10;;;;;;;2.72;1.73;;;20.10;92.10;;;;;;4960451;28;20047;-78
2022/08/10 04:29:37;;;;;;;3.03;1.63;;;20.00;92.00;;;;;;4958985;28;20039;-79
2022/08/10 04:32:06;;;;;;;4.20;1.70;;;19.90;92.20;;;;;;4959337;28;20121;-79
2022/08/10 04:34:37;;;;;;;2.83;1.85;;;19.90;92.20;;;;;;4951920;28;20126;-79
2022/08/10 04:37:05;;;;;;;2.75;1.83;;;19.60;92.20;;;;;;4960448;28;20577;-79
2022/08/10 04:39:31;;;;;;;3.05;2.10;;;19.80;92.30;;;;;;4940485;28;20117;-79
2022/08/10 04:42:06;;;;;;;3.10;2.03;;;19.80;92.40;;;;;;4943959;28;20051;-79
2022/08/10 04:44:36;;;;;;;3.72;2.65;;;19.60;92.40;;;;;;4950312;28;20046;-78
2022/08/10 04:47:02;;;;;;;8.65;2.25;;;19.80;92.40;;;;;;4930676;28;20051;-78
2022/08/10 04:49:28;;;;;;;8.98;2.58;;;19.90;92.50;;;;;;4963057;28;20047;-79
2022/08/10 04:51:57;;;;;;;7.63;2.28;;;19.80;92.40;;;;;;4934001;28;20173;-79
2022/08/10 04:54:25;;;;;;;4.18;2.22;;;19.70;92.40;;;;;;4963337;28;20949;-79
2022/08/10 04:56:54;;;;;;;5.85;2.50;;;19.70;92.50;;;;;;4949439;28;20047;-79
2022/08/10 04:59:20;;;;;;;8.57;2.05;;;19.80;92.60;;;;;;4965440;28;20103;-80
2022/08/10 05:01:49;;;;;;;5.43;2.17;;;19.90;92.60;;;;;;4953482;28;20059;-79
2022/08/10 05:04:28;;;;;;;9.63;2.75;;;19.80;92.60;;;;;;4968174;28;20043;-79
2022/08/10 05:06:54;;;;;;;4.05;2.28;;;19.80;92.70;;;;;;4970042;28;20956;-79
2022/08/10 05:09:22;;;;;;;2.90;2.00;;;19.80;92.70;;;;;;4966663;28;20066;-79
2022/08/10 05:11:53;;;;;;;4.28;2.63;;;19.90;92.80;;;;;;4937636;28;20600;-83
2022/08/10 05:14:28;;;;;;;9.93;2.67;;;19.90;92.80;;;;;;4962401;28;20047;-82
2022/08/10 05:16:54;;;;;;;4.72;2.30;;;19.80;92.80;;;;;;4961072;28;20517;-80
2022/08/10 05:19:20;;;;;;;7.28;2.20;;;19.80;92.90;;;;;;4945846;28;20051;-81
2022/08/10 05:22:09;;;;;;;9.32;5.57;;;19.50;92.80;;;;;;4962126;28;20043;-84
2022/08/10 05:24:38;;;;;;;5.22;2.25;;;19.80;92.90;;;;;;4961256;28;20074;-81
2022/08/10 05:27:09;;;;;;;10.70;3.25;;;19.70;93.00;;;;;;4961521;28;20067;-81
2022/08/10 05:29:42;;;;;;;7.37;2.90;;;19.80;93.10;;;;;;4958094;28;20043;-81
2022/08/10 05:32:15;;;;;;;8.50;3.25;;;19.80;93.10;;;;;;4963665;28;20039;-81
2022/08/10 05:34:49;;;;;;;13.88;3.00;;;19.80;93.10;;;;;;4935424;28;20134;-81
2022/08/10 05:37:18;;;;;;;6.75;2.97;;;19.60;93.10;;;;;;4965029;28;20041;-81
2022/08/10 05:39:55;;;;;;;6.45;2.20;;;19.80;93.20;;;;;;4966286;28;20043;-80
2022/08/10 05:42:27;;;;;;;3.78;1.85;;;20.00;93.30;;;;;;4948667;28;21335;-81
2022/08/10 05:44:55;;;;;;;3.92;2.85;;;19.70;93.30;;;;;;4965910;28;20039;-81
2022/08/10 05:47:22;;;;;;;9.48;2.95;;;19.80;93.40;;;;;;5028017;28;20536;-81
2022/08/10 05:49:54;;;;;;;5.75;2.47;;;19.80;93.60;;;;;;5027559;28;20215;-80
2022/08/10 05:52:51;;;;;;;8.63;2.40;;;19.80;93.40;;;;;;5027880;28;21658;-82
2022/08/10 05:55:30;;;;;;;4.22;1.90;;;19.80;93.50;;;;;;5012658;28;20146;-82
2022/08/10 05:57:59;;;;;;;7.13;2.60;;;19.80;93.50;;;;;;5029149;28;20147;-80
2022/08/10 06:00:35;;;;;;;6.13;2.88;;;19.80;93.50;;;;;;5026221;28;20124;-81
2022/08/10 06:03:12;;;;;;;14.27;2.50;;;19.90;93.60;;;;;;5027783;28;20049;-80
2022/08/10 06:05:44;;;;;;;6.43;2.75;;;19.80;93.60;;;;;;5024931;28;20050;-80
2022/08/10 06:08:20;;;;;;;4.85;2.13;;;19.80;93.60;;;;;;5027623;28;20129;-79
2022/08/10 06:10:56;;;;;;;7.10;2.30;;;19.90;93.70;;;;;;5026525;28;20069;-79
2022/08/10 06:16:11;;;;;;;4.50;2.33;;;19.90;93.80;;;;;;5027497;28;20583;-81
2022/08/10 06:18:52;;;;;;;5.13;2.15;;;20.00;93.80;;;;;;5025623;28;20037;-79
2022/08/10 06:21:19;;;;;;;4.85;1.95;;;19.90;93.80;;;;;;5025027;28;20053;-81
2022/08/10 06:23:51;;;;;;;3.00;1.90;;;20.00;93.90;;;;;;5008420;28;20112;-80
2022/08/10 06:26:23;;;;;;;8.90;2.45;;;20.00;93.90;;;;;;5025251;28;20524;-80
2022/08/10 06:29:13;;;;;;;3.30;2.25;;;20.20;94.00;;;;;;5023826;28;20046;-80
2022/08/10 06:31:44;;;;;;;5.57;2.47;;;20.10;93.90;;;;;;5019873;28;20038;-80
2022/08/10 06:34:14;;;;;;;7.30;2.92;;;20.20;94.00;;;;;;5023465;28;20885;-80
2022/08/10 06:36:47;;;;;;;3.53;2.20;;;20.10;94.00;;;;;;5024936;28;20240;-80
2022/08/10 06:39:15;;;;;;;9.90;2.55;;;20.10;94.00;;;;;;5024362;28;20033;-78
2022/08/10 06:41:48;;;;;;;5.75;2.45;;;20.20;94.00;;;;;;5017707;28;20604;-79
2022/08/10 06:44:57;;;;;;;4.40;2.40;;;20.40;94.00;;;;;;5009150;28;20046;-79
2022/08/10 06:47:53;;;;;;;3.70;2.15;;;20.10;93.90;;;;;;4948026;28;20063;-80
2022/08/10 06:50:40;;;;;;;3.20;1.98;;;20.30;94.00;;;;;;5013725;28;20043;-80
2022/08/10 06:53:13;;;;;;;3.15;2.30;;;20.30;94.00;;;;;;4956899;28;20058;-80
2022/08/10 06:55:52;;;;;;;4.30;2.50;;;20.30;94.00;;;;;;4956006;28;20043;-80
2022/08/10 06:58:21;;;;;;;4.47;2.35;;;20.30;94.00;;;;;;4955827;28;20051;-80
2022/08/10 07:00:55;;;;;;;5.65;2.30;;;20.40;94.00;;;;;;4950101;28;20123;-79
2022/08/10 07:03:25;;;;;;;5.10;2.13;;;20.40;94.00;;;;;;4951005;28;20119;-79
2022/08/10 07:05:58;;;;;;;3.88;2.38;;;20.40;93.90;;;;;;4952827;28;20052;-80
2022/08/10 07:08:30;;;;;;;3.92;2.50;;;20.40;94.00;;;;;;5015941;28;20489;-80
2022/08/10 07:10:59;;;;;;;6.13;2.00;;;20.50;93.90;;;;;;4949145;28;20048;-79
2022/08/10 07:13:33;;;;;;;3.50;2.28;;;20.50;93.90;;;;;;4948420;28;20059;-79
2022/08/10 07:16:05;;;;;;;5.57;2.50;;;20.50;93.80;;;;;;4932640;28;20572;-79
2022/08/10 07:18:32;;;;;;;4.75;2.25;;;20.60;93.80;;;;;;5015632;28;20047;-78
2022/08/10 07:21:03;;;;;;;5.15;2.20;;;20.60;93.80;;;;;;4948260;28;20040;-80
2022/08/10 07:23:30;;;;;;;7.10;2.75;;;20.80;93.80;;;;;;5014987;28;20507;-78
2022/08/10 07:26:08;;;;;;;8.30;2.88;;;20.70;93.80;;;;;;4934013;28;20048;-79
2022/08/10 07:28:38;;;;;;;4.47;2.22;;;20.70;93.80;;;;;;4948885;28;20059;-79
2022/08/10 07:31:15;;;;;;;5.25;2.58;;;20.80;93.80;;;;;;4951220;28;20052;-79
2022/08/10 07:33:48;;;;;;;4.93;2.47;;;20.80;93.80;;;;;;4952304;28;20039;-79
2022/08/10 07:36:14;;;;;;;3.17;1.90;;;20.80;93.70;;;;;;4949104;28;20138;-80
2022/08/10 07:38:42;;;;;;;4.90;2.30;;;20.90;93.80;;;;;;5015333;28;20530;-79
2022/08/10 07:41:11;;;;;;;4.78;2.42;;;20.90;93.70;;;;;;4948751;28;20510;-80
2022/08/10 07:43:45;;;;;;;3.15;2.08;;;20.90;93.70;;;;;;4947139;28;20102;-81
2022/08/10 07:46:14;;;;;;;4.65;2.08;;;21.00;93.60;;;;;;4955821;28;20957;-80
2022/08/10 07:49:01;;;;;;;3.17;2.10;;;21.00;93.60;;;;;;4963012;28;20065;-80
2022/08/10 07:51:30;;;;;;;4.72;2.38;;;21.10;93.50;;;;;;4952250;28;20180;-80
2022/08/10 07:54:07;;;;;;;3.28;2.10;;;21.10;93.50;;;;;;4964592;28;20191;-79
2022/08/10 07:56:47;;;;;;;3.72;2.40;;;21.10;93.40;;;;;;4935154;28;20046;-85
2022/08/10 07:59:39;;;;;;;4.32;2.38;;;21.20;93.40;;;;;;4950104;28;20553;-78
2022/08/10 08:02:14;;;;;;;17.30;4.80;;;21.10;93.40;;;;;;4965652;28;20178;-79
2022/08/10 08:04:59;;;;;;;7.38;3.03;;;21.20;93.40;;;;;;4964243;28;20122;-79
2022/08/10 08:07:31;;;;;;;2.90;2.00;;;21.20;93.40;;;;;;4934835;28;20600;-80
2022/08/10 08:10:01;;;;;;;;;;;21.30;93.50;;;;;;4934646;28;20743;-79
2022/08/10 08:12:31;;;;;;;5.82;3.00;;;21.30;93.40;;;;;;4962948;28;20083;-79
2022/08/10 08:15:01;;;;;;;4.43;2.08;;;21.40;93.50;;;;;;4963914;28;20070;-79
2022/08/10 08:17:35;;;;;;;5.28;2.30;;;21.40;93.40;;;;;;4949413;28;20046;-79
2022/08/10 08:20:03;;;;;;;5.28;2.15;;;21.50;93.30;;;;;;4952841;28;20051;-79
2022/08/10 08:22:29;;;;;;;3.45;2.10;;;21.50;93.20;;;;;;4953298;28;20043;-79
2022/08/10 08:25:00;;;;;;;5.13;2.38;;;21.70;93.10;;;;;;4936401;28;20051;-79
2022/08/10 08:27:28;;;;;;;3.28;2.22;;;21.60;92.90;;;;;;4965292;28;20177;-79
2022/08/10 08:29:59;;;;;;;4.05;2.60;;;21.70;92.80;;;;;;4965336;28;20057;-79
2022/08/10 08:32:36;;;;;;;4.55;2.15;;;21.70;92.60;;;;;;4959326;28;20035;-79
2022/08/10 08:35:15;;;;;;;4.00;2.20;;;21.80;92.40;;;;;;4952411;28;20070;-79
2022/08/10 08:37:54;;;;;;;4.63;2.60;;;21.80;92.40;;;;;;4957830;28;20050;-78
2022/08/10 08:40:32;;;;;;;5.13;2.45;;;21.80;92.20;;;;;;4939416;28;20592;-79
2022/08/10 08:43:30;;;;;;;5.65;2.47;;;21.70;92.00;;;;;;4966747;28;20043;-79
2022/08/10 08:46:32;;;;;;;4.60;2.17;;;21.90;91.90;;;;;;4965995;28;20054;-78
2022/08/10 08:49:40;;;;;;;6.53;2.28;;;22.00;91.90;;;;;;4965763;28;20047;-78
2022/08/10 08:52:33;;;;;;;3.80;2.40;;;22.00;91.70;;;;;;4970505;28;20062;-78
2022/08/10 08:55:39;;;;;;;2.75;2.30;;;22.10;91.50;;;;;;4952874;28;20440;-78
2022/08/10 08:58:48;;;;;;;5.72;2.15;;;22.20;91.30;;;;;;4950562;28;20053;-78
2022/08/10 09:01:32;;;;;;;2.78;1.85;;;22.20;91.20;;;;;;4968210;28;20043;-78
2022/08/10 09:04:10;;;;;;;4.85;2.30;;;22.30;91.10;;;;;;4968242;28;20642;-78
2022/08/10 09:06:57;;;;;;;6.95;2.65;;;22.40;91.00;;;;;;4970437;28;20054;-78
2022/08/10 09:09:57;;;;;;;6.40;1.90;;;22.40;90.90;;;;;;4950819;28;20043;-78
2022/08/10 09:12:52;;;;;;;4.97;2.75;;;22.50;90.80;;;;;;4951023;28;20043;-78
2022/08/10 09:15:34;;;;;;;4.05;2.10;;;22.50;90.70;;;;;;4965655;28;20047;-78
2022/08/10 09:18:06;;;;;;;5.07;1.90;;;22.50;90.70;;;;;;4966438;28;20089;-79
2022/08/10 09:21:01;;;;;;;3.15;2.15;;;22.50;90.70;;;;;;4955774;28;20061;-78
2022/08/10 09:23:50;;;;;;;3.17;2.60;;;22.60;90.60;;;;;;4978311;28;20046;-78
2022/08/10 09:26:24;;;;;;;3.35;1.58;;;22.60;90.50;;;;;;4960729;28;20180;-79
2022/08/10 09:28:56;;;;;;;4.22;2.05;;;22.70;90.50;;;;;;4948138;28;20047;-78
2022/08/10 09:31:23;;;;;;;2.60;1.95;;;22.70;90.40;;;;;;4965908;28;20031;-78
2022/08/10 09:33:52;;;;;;;2.50;1.63;;;22.80;90.30;;;;;;4966062;28;20057;-79
2022/08/10 09:36:18;;;;;;;4.35;2.67;;;22.80;90.20;;;;;;4964833;28;20043;-77
2022/08/10 09:39:06;;;;;;;5.07;1.90;;;22.90;90.20;;;;;;4951706;28;20066;-80
2022/08/10 09:41:53;;;;;;;3.45;1.75;;;22.90;90.10;;;;;;4969287;28;20060;-79
2022/08/10 09:44:46;;;;;;;3.10;1.88;;;23.00;89.90;;;;;;4967696;28;20126;-79
2022/08/10 09:47:33;;;;;;;3.03;2.20;;;23.00;89.70;;;;;;4965771;28;20138;-79
2022/08/10 09:50:27;;;;;;;4.93;2.78;;;23.10;89.40;;;;;;4968127;28;20064;-78
2022/08/10 09:53:14;;;;;;;7.28;2.33;;;23.20;89.10;;;;;;4952898;28;20050;-79
2022/08/10 09:55:58;;;;;;;6.13;2.72;;;23.20;88.90;;;;;;4967036;28;21101;-78
2022/08/10 09:58:45;;;;;;;3.83;2.55;;;23.30;88.90;;;;;;4973995;28;20043;-80
2022/08/10 10:01:20;;;;;;;4.72;2.15;;;23.40;88.50;;;;;;4965594;28;20043;-79
2022/08/10 10:04:00;;;;;;;4.35;2.58;;;23.40;88.20;;;;;;4964892;28;20042;-79
2022/08/10 10:06:34;;;;;;;5.05;2.47;;;23.50;87.90;;;;;;4963769;28;20043;-78
2022/08/10 10:09:18;;;;;;;5.43;2.42;;;23.50;87.80;;;;;;4965958;28;20070;-79
2022/08/10 10:12:06;;;;;;;6.50;2.20;;;23.50;87.70;;;;;;4965575;28;20047;-78
2022/08/10 10:18:00;;;;;;;2.85;1.80;;;23.80;86.30;;;;;;4965056;28;20042;-80
2022/08/10 10:20:54;;;;;;;6.40;2.40;;;23.70;85.60;;;;;;4961747;28;20055;-79
2022/08/10 10:23:45;;;;;;;3.97;1.77;;;23.90;84.70;;;;;;4966564;28;20043;-78
2022/08/10 10:26:47;;;;;;;10.23;2.38;;;23.80;84.10;;;;;;4931614;28;20042;-79
2022/08/10 10:29:20;;;;;;;3.30;2.22;;;23.90;83.40;;;;;;4954960;28;20567;-78
2022/08/10 10:32:04;;;;;;;2.58;1.80;;;23.90;82.90;;;;;;4984401;28;21254;-81
2022/08/10 10:35:07;;;;;;;6.45;2.40;;;24.00;82.40;;;;;;5004900;28;20039;-85
2022/08/10 10:37:42;;;;;;;3.45;1.83;;;24.00;82.00;;;;;;4932920;28;21223;-84
2022/08/10 10:40:09;;;;;;;3.33;2.25;;;24.00;81.80;;;;;;4947662;28;21204;-84
2022/08/10 10:43:03;;;;;;;4.25;2.40;;;24.10;81.40;;;;;;4950018;28;20639;-84
2022/08/10 10:46:04;;;;;;;4.65;2.20;;;24.20;81.10;;;;;;4997105;28;20043;-86
2022/08/10 10:49:03;;;;;;;5.05;1.77;;;24.30;80.30;;;;;;4962672;28;20126;-86
2022/08/10 10:52:09;;;;;;;3.28;2.10;;;24.40;79.60;;;;;;4946075;28;20051;-85
2022/08/10 10:55:14;;;;;;;3.75;2.33;;;24.50;78.90;;;;;;4944199;28;20082;-85
2022/08/10 10:58:19;;;;;;;2.70;2.13;;;24.50;78.60;;;;;;4947604;28;20053;-85
2022/08/10 11:00:52;;;;;;;3.17;2.20;;;24.50;78.70;;;;;;4962437;28;20062;-85
2022/08/10 11:04:02;;;;;;;4.45;2.30;;;24.40;79.00;;;;;;5029877;28;20077;-84
2022/08/10 11:06:49;;;;;;;3.08;1.92;;;24.70;78.80;;;;;;4959831;28;20051;-84
2022/08/10 11:09:36;;;;;;;3.00;2.00;;;24.40;78.70;;;;;;4947450;28;20043;-85
2022/08/10 11:12:31;;;;;;;5.35;2.40;;;24.50;78.80;;;;;;4935409;28;20532;-85
2022/08/10 11:15:30;;;;;;;5.68;2.20;;;24.60;78.10;;;;;;4945699;28;20170;-85
2022/08/10 11:18:46;;;;;;;4.85;1.98;;;24.60;77.80;;;;;;4946606;28;20055;-84
2022/08/10 11:21:30;;;;;;;2.95;1.90;;;24.60;77.70;;;;;;4956130;28;20050;-86
2022/08/10 11:24:29;;;;;;;3.38;1.92;;;24.70;77.40;;;;;;4966115;28;20138;-85
2022/08/10 11:27:29;;;;;;;6.63;2.30;;;24.90;77.60;;;;;;4949911;28;20051;-86
2022/08/10 11:30:18;;;;;;;2.42;1.85;;;24.80;77.50;;;;;;4966673;28;20048;-85
2022/08/10 11:33:14;;;;;;;4.00;2.85;;;24.80;77.40;;;;;;4937249;28;20108;-85
2022/08/10 11:36:11;;;;;;;3.75;2.00;;;24.80;77.40;;;;;;4953985;28;20070;-86
2022/08/10 11:38:58;;;;;;;6.18;2.00;;;24.80;77.10;;;;;;4967376;28;20032;-86
2022/08/10 11:42:21;;;;;;;3.80;2.20;;;24.90;76.80;;;;;;4963250;28;20051;-85
2022/08/10 11:45:15;;;;;;;2.92;1.90;;;24.90;76.90;;;;;;4955867;28;20090;-85
2022/08/10 11:48:37;;;;;;;6.63;2.13;;;24.80;76.80;;;;;;4978988;28;20055;-85
2022/08/10 12:04:52;;;;;;;7.22;2.13;;;25.30;74.90;;;;;;4966779;28;20055;-86
2022/08/10 12:07:43;;;;;;;2.65;1.88;;;25.30;75.40;;;;;;4953154;28;20631;-86
2022/08/10 12:10:43;;;;;;;3.10;1.95;;;25.30;75.20;;;;;;4941359;28;20109;-86
2022/08/10 12:17:10;;;;;;;;;;;;;;;;;;;;;
2022/08/10 12:20:11;;;;;;;3.85;2.20;;;25.30;75.10;;;;;;5043997;28;45261;-86
2022/08/10 12:23:22;;;;;;;3.30;2.03;;;25.20;75.10;;;;;;4965227;28;20051;-86
2022/08/10 12:26:15;;;;;;;5.47;1.98;;;25.30;74.70;;;;;;4966928;28;20044;-86
2022/08/10 12:29:22;;;;;;;3.50;2.00;;;25.50;74.60;;;;;;4975617;28;20066;-86
2022/08/10 12:32:16;;;;;;;3.20;1.95;;;25.50;74.70;;;;;;4950820;28;20058;-85
2022/08/10 12:35:24;;;;;;;3.40;2.15;;;25.60;74.60;;;;;;4964138;28;20058;-85
2022/08/10 12:38:04;;;;;;;2.90;1.90;;;25.60;74.30;;;;;;4957189;28;20137;-86
2022/08/10 12:41:17;;;;;;;5.22;2.22;;;25.60;74.30;;;;;;4947229;28;20047;-85
2022/08/10 12:44:29;;;;;;;5.25;2.38;;;25.70;74.60;;;;;;4940586;28;20248;-85
2022/08/10 12:47:38;;;;;;;;;;;25.70;74.50;;;;;;4959420;28;20179;-86
2022/08/10 12:50:56;;;;;;;4.80;1.90;;;25.70;74.40;;;;;;5026612;28;19925;-85
2022/08/10 12:54:02;;;;;;;6.50;2.58;;;25.70;74.30;;;;;;4964387;28;20129;-80
2022/08/10 12:56:35;;;;;;;2.75;2.00;;;25.80;74.50;;;;;;4932416;28;20563;-80
2022/08/10 12:59:16;;;;;;;3.30;1.90;;;25.80;74.50;;;;;;4954880;28;20543;-80
2022/08/10 13:01:53;;;;;;;4.97;2.63;;;25.80;74.50;;;;;;4965702;28;20039;-80
2022/08/10 13:04:39;;;;;;;5.70;2.20;;;25.80;74.30;;;;;;4964531;28;20051;-80
2022/08/10 13:07:11;;;;;;;5.13;2.10;;;25.80;74.40;;;;;;4949624;28;20043;-80
2022/08/10 13:09:41;;;;;;;3.30;2.08;;;25.90;74.60;;;;;;4936849;28;20043;-81
2022/08/10 13:12:26;;;;;;;5.07;2.10;;;26.00;74.50;;;;;;4935406;28;20033;-80
2022/08/10 13:15:11;;;;;;;3.22;1.98;;;26.10;74.50;;;;;;4967299;28;20043;-80
2022/08/10 13:17:46;;;;;;;3.00;1.85;;;26.00;74.40;;;;;;4947764;28;20557;-81
2022/08/10 13:20:41;;;;;;;5.03;2.45;;;26.00;74.50;;;;;;4950045;28;20134;-80
2022/08/10 13:23:55;;;;;;;4.30;2.35;;;26.10;74.70;;;;;;5018189;28;20048;-80
2022/08/10 13:26:33;;;;;;;7.55;2.10;;;26.10;74.70;;;;;;4956361;28;20043;-81
2022/08/10 13:29:03;;;;;;;3.92;2.17;;;26.30;74.40;;;;;;5022817;28;20046;-80
2022/08/10 13:31:51;;;;;;;8.15;2.33;;;26.30;73.90;;;;;;4931510;28;20058;-81
2022/08/10 13:34:23;;;;;;;4.05;2.20;;;26.10;74.00;;;;;;4966600;28;20544;-80
2022/08/10 13:36:56;;;;;;;3.85;2.20;;;26.30;73.80;;;;;;4964725;28;20050;-80
2022/08/10 13:39:37;;;;;;;2.92;2.03;;;26.40;73.70;;;;;;4932212;28;20547;-80
2022/08/10 13:42:23;;;;;;;3.35;2.03;;;26.40;73.60;;;;;;4966115;28;20047;-80
2022/08/10 13:45:04;;;;;;;5.75;2.17;;;26.40;73.70;;;;;;4964687;28;20148;-81
2022/08/10 13:47:41;;;;;;;4.50;2.50;;;26.30;73.80;;;;;;4950562;28;20062;-80
2022/08/10 13:50:53;;;;;;;3.50;1.85;;;26.30;73.80;;;;;;4952424;28;20051;-80
2022/08/10 13:53:23;;;;;;;5.05;2.33;;;26.50;73.20;;;;;;4939533;28;20760;-81
2022/08/10 13:55:55;;;;;;;3.80;1.92;;;26.50;73.10;;;;;;4937324;28;20040;-79
2022/08/10 13:58:25;;;;;;;;;;;26.60;73.00;;;;;;4952500;28;20109;-80
2022/08/10 14:01:07;;;;;;;5.60;2.20;;;26.60;72.90;;;;;;4938654;28;20543;-81
2022/08/10 14:03:41;;;;;;;3.45;1.83;;;26.60;73.20;;;;;;4936829;28;20482;-80
2022/08/10 14:06:19;;;;;;;2.90;1.80;;;26.70;72.80;;;;;;4951993;28;20057;-81
2022/08/10 14:09:00;;;;;;;3.00;1.90;;;26.80;72.70;;;;;;4964918;28;20990;-81
2022/08/10 14:11:44;;;;;;;3.87;1.90;;;26.70;72.60;;;;;;4947760;28;20093;-80
2022/08/10 14:14:20;;;;;;;4.65;2.63;;;26.80;72.50;;;;;;4966560;28;20283;-81
2022/08/10 14:16:52;;;;;;;3.20;2.22;;;26.90;72.30;;;;;;4951236;28;20039;-81